createdAt,value
2022-08-12T00:00:05.925Z,8.84
2022-08-12T00:01:11.172Z,8.91
2022-08-12T00:02:16.542Z,8.85
2022-08-12T00:03:21.806Z,9.10
2022-08-12T00:04:27.045Z,8.96
2022-08-12T00:05:37.578Z,8.97
2022-08-12T00:07:03.462Z,8.25
2022-08-12T00:08:09.589Z,8.46
2022-08-12T00:09:16.303Z,8.60
2022-08-12T00:10:22.996Z,8.61
2022-08-12T00:11:28.962Z,9.24
2022-08-12T00:12:34.718Z,8.71
2022-08-12T00:13:40.094Z,8.37
2022-08-12T00:14:45.345Z,8.16
2022-08-12T00:15:56.604Z,8.71
2022-08-12T00:17:02.292Z,8.60
2022-08-12T00:18:08.423Z,8.36
2022-08-12T00:19:13.789Z,8.82
2022-08-12T00:20:20.155Z,8.85
2022-08-12T00:21:26.674Z,9.50
2022-08-12T00:22:33.638Z,8.73
2022-08-12T00:23:39.525Z,8.79
2022-08-12T00:24:45.425Z,9.05
2022-08-12T00:26:21.185Z,8.92
2022-08-12T00:27:27.546Z,8.59
2022-08-12T00:28:50.786Z,8.99
2022-08-12T00:29:57.014Z,8.72
2022-08-12T00:31:03.308Z,8.53
2022-08-12T00:32:09.452Z,9.35
2022-08-12T00:33:22.333Z,9.36
2022-08-12T00:34:32.378Z,8.64
2022-08-12T00:35:37.427Z,9.08
2022-08-12T00:36:50.104Z,8.69
2022-08-12T00:37:55.545Z,9.32
2022-08-12T00:39:01.351Z,8.94
2022-08-12T00:40:11.371Z,8.82
2022-08-12T00:41:18.650Z,8.86
2022-08-12T00:42:12.046Z,9.04
2022-08-12T00:42:59.913Z,8.86
2022-08-12T00:43:49.792Z,9.04
2022-08-12T00:44:45.058Z,8.66
2022-08-12T00:45:54.874Z,8.76
2022-08-12T00:46:51.537Z,9.12
2022-08-12T00:47:39.469Z,8.31
2022-08-12T00:48:26.626Z,8.89
2022-08-12T00:49:13.605Z,8.90
2022-08-12T00:50:00.899Z,8.13
2022-08-12T00:50:54.708Z,9.05
2022-08-12T00:52:02.042Z,9.10
2022-08-12T00:52:52.156Z,8.59
2022-08-12T00:53:39.628Z,8.44
2022-08-12T00:54:27.377Z,8.63
2022-08-12T00:55:21.695Z,9.09
2022-08-12T00:56:09.550Z,8.63
2022-08-12T00:57:02.064Z,8.43
2022-08-12T00:57:51.852Z,9.05
2022-08-12T00:58:48.360Z,9.44
2022-08-12T00:59:36.318Z,9.30
2022-08-12T01:00:25.409Z,8.98
2022-08-12T01:01:14.696Z,8.54
2022-08-12T01:02:10.944Z,8.97
2022-08-12T01:03:03.107Z,8.21
2022-08-12T01:04:10.334Z,9.31
2022-08-12T01:05:40.229Z,8.85
2022-08-12T01:06:50.943Z,9.21
2022-08-12T01:08:00.746Z,8.79
2022-08-12T01:09:05.977Z,9.06
2022-08-12T01:10:12.769Z,9.49
2022-08-12T01:11:18.623Z,9.31
2022-08-12T01:12:08.262Z,9.11
2022-08-12T01:12:55.250Z,9.06
2022-08-12T01:14:02.159Z,9.51
2022-08-12T01:14:49.384Z,9.18
2022-08-12T01:15:36.124Z,9.56
2022-08-12T01:16:26.061Z,9.23
2022-08-12T01:17:13.370Z,9.34
2022-08-12T01:18:00.955Z,10.02
2022-08-12T01:18:50.350Z,9.47
2022-08-12T01:19:37.519Z,9.64
2022-08-12T01:20:40.998Z,9.58
2022-08-12T01:21:27.534Z,9.38
2022-08-12T01:22:45.294Z,9.30
2022-08-12T01:23:51.300Z,9.32
2022-08-12T01:24:48.930Z,9.13
2022-08-12T01:25:55.620Z,8.87
2022-08-12T01:26:46.857Z,9.02
2022-08-12T01:27:38.093Z,9.23
2022-08-12T01:28:28.033Z,9.08
2022-08-12T01:29:26.703Z,9.42
2022-08-12T01:30:16.224Z,9.29
2022-08-12T01:31:06.234Z,9.29
2022-08-12T01:31:56.736Z,8.41
2022-08-12T01:32:48.155Z,9.18
2022-08-12T01:33:46.445Z,9.25
2022-08-12T01:34:37.620Z,8.82
2022-08-12T01:35:27.169Z,9.29
2022-08-12T01:36:19.188Z,9.26
2022-08-12T01:37:09.867Z,9.39
2022-08-12T01:38:04.783Z,9.43
2022-08-12T01:38:56.308Z,9.62
2022-08-12T01:40:34.913Z,9.05
2022-08-12T01:41:01.943Z,9.18
2022-08-12T01:41:54.186Z,9.27
2022-08-12T01:42:51.205Z,9.12
2022-08-12T01:43:40.211Z,9.93
2022-08-12T01:44:30.557Z,9.60
2022-08-12T01:45:22.850Z,9.90
2022-08-12T01:46:25.217Z,9.90
2022-08-12T01:47:26.475Z,9.69
2022-08-12T01:48:54.097Z,9.72
2022-08-12T01:50:00.541Z,9.55
2022-08-12T01:52:16.370Z,9.53
2022-08-12T01:53:03.675Z,10.19
2022-08-12T01:54:04.466Z,10.12
2022-08-12T01:54:53.591Z,9.54
2022-08-12T01:55:45.142Z,9.78
2022-08-12T01:56:54.014Z,8.89
2022-08-12T01:57:57.741Z,9.80
2022-08-12T01:59:05.826Z,9.44
2022-08-12T02:00:12.312Z,9.61
2022-08-12T02:01:04.472Z,9.44
2022-08-12T02:01:54.718Z,9.78
2022-08-12T02:02:52.026Z,9.82
2022-08-12T02:04:23.425Z,9.90
2022-08-12T02:05:52.900Z,9.68
2022-08-12T02:07:14.571Z,9.49
2022-08-12T02:08:52.485Z,9.51
2022-08-12T02:10:51.081Z,9.98
2022-08-12T02:11:35.113Z,10.11
2022-08-12T02:12:50.168Z,10.55
2022-08-12T02:14:06.263Z,10.09
2022-08-12T02:14:58.005Z,9.98
2022-08-12T02:15:58.588Z,9.24
2022-08-12T02:17:54.493Z,9.22
2022-08-12T02:18:46.338Z,10.03
2022-08-12T02:19:54.483Z,9.74
2022-08-12T02:20:53.153Z,9.83
2022-08-12T02:21:54.656Z,9.85
2022-08-12T02:22:44.100Z,10.00
2022-08-12T02:23:34.616Z,9.46
2022-08-12T02:24:26.828Z,9.53
2022-08-12T02:25:37.660Z,8.95
2022-08-12T02:26:30.129Z,9.71
2022-08-12T02:27:19.884Z,9.59
2022-08-12T02:28:08.247Z,9.28
2022-08-12T02:28:55.320Z,9.81
2022-08-12T02:29:41.916Z,9.63
2022-08-12T02:30:41.620Z,10.16
2022-08-12T02:31:30.289Z,9.65
2022-08-12T02:32:17.090Z,9.38
2022-08-12T02:33:06.280Z,9.95
2022-08-12T02:33:54.327Z,9.55
2022-08-12T02:34:43.862Z,9.99
2022-08-12T02:35:35.468Z,9.53
2022-08-12T02:36:22.307Z,9.50
2022-08-12T02:37:12.933Z,9.94
2022-08-12T02:38:04.302Z,9.90
2022-08-12T02:38:53.116Z,9.71
2022-08-12T02:39:49.054Z,9.46
2022-08-12T02:40:43.014Z,9.73
2022-08-12T02:41:34.085Z,9.66
2022-08-12T02:42:23.717Z,10.08
2022-08-12T02:43:27.395Z,9.98
2022-08-12T02:44:18.007Z,9.69
2022-08-12T02:45:07.491Z,10.09
2022-08-12T02:46:18.174Z,10.15
2022-08-12T02:47:07.199Z,9.56
2022-08-12T02:48:15.063Z,9.98
2022-08-12T02:49:29.492Z,10.37
2022-08-12T02:50:20.366Z,10.16
2022-08-12T02:51:11.790Z,9.56
2022-08-12T02:52:00.187Z,9.82
2022-08-12T02:52:47.975Z,9.93
2022-08-12T02:53:37.104Z,10.12
2022-08-12T02:54:26.289Z,9.77
2022-08-12T02:55:28.733Z,10.14
2022-08-12T02:56:21.972Z,9.90
2022-08-12T02:57:09.012Z,10.01
2022-08-12T02:57:57.021Z,10.14
2022-08-12T02:58:46.147Z,10.11
2022-08-12T02:59:35.639Z,9.89
2022-08-12T03:00:23.120Z,9.30
2022-08-12T03:01:10.171Z,10.00
2022-08-12T03:02:03.475Z,9.68
2022-08-12T03:02:52.419Z,9.97
2022-08-12T03:03:41.531Z,10.32
2022-08-12T03:04:51.398Z,10.31
2022-08-12T03:05:48.858Z,9.86
2022-08-12T03:06:46.507Z,9.67
2022-08-12T03:07:59.573Z,10.25
2022-08-12T03:08:51.871Z,10.23
2022-08-12T03:10:04.244Z,10.77
2022-08-12T03:11:14.089Z,10.28
2022-08-12T03:12:09.244Z,10.46
2022-08-12T03:12:59.597Z,9.97
2022-08-12T03:13:53.672Z,10.54
2022-08-12T03:14:43.395Z,10.49
2022-08-12T03:15:31.239Z,10.28
2022-08-12T03:16:20.620Z,10.22
2022-08-12T03:17:34.427Z,9.69
2022-08-12T03:18:31.131Z,9.81
2022-08-12T03:19:21.342Z,9.92
2022-08-12T03:20:11.934Z,9.96
2022-08-12T03:21:00.760Z,10.26
2022-08-12T03:22:05.777Z,10.36
2022-08-12T03:22:58.985Z,10.45
2022-08-12T03:23:47.591Z,10.07
2022-08-12T03:24:38.743Z,10.32
2022-08-12T03:25:26.475Z,9.85
2022-08-12T03:26:14.709Z,9.77
2022-08-12T03:27:05.807Z,9.80
2022-08-12T03:27:57.765Z,10.26
2022-08-12T03:28:50.700Z,9.88
2022-08-12T03:29:49.858Z,10.45
2022-08-12T03:30:39.711Z,10.08
2022-08-12T03:31:30.290Z,10.80
2022-08-12T03:32:36.401Z,10.04
2022-08-12T03:33:27.372Z,10.14
2022-08-12T03:34:29.782Z,10.37
2022-08-12T03:35:41.446Z,10.35
2022-08-12T03:36:35.568Z,9.99
2022-08-12T03:37:25.715Z,9.87
2022-08-12T03:38:16.060Z,9.78
2022-08-12T03:39:15.867Z,10.00
2022-08-12T03:40:02.702Z,10.23
2022-08-12T03:41:17.975Z,10.91
2022-08-12T03:42:18.840Z,10.11
2022-08-12T03:43:30.603Z,10.60
2022-08-12T03:44:57.050Z,10.43
2022-08-12T03:46:04.219Z,10.78
2022-08-12T03:47:45.798Z,10.15
2022-08-12T03:48:50.918Z,10.58
2022-08-12T03:49:56.735Z,10.58
2022-08-12T03:51:05.854Z,10.95
2022-08-12T03:52:11.630Z,10.97
2022-08-12T03:53:18.066Z,11.43
2022-08-12T03:54:23.823Z,10.80
2022-08-12T03:55:28.867Z,10.01
2022-08-12T03:56:34.708Z,10.87
2022-08-12T03:57:39.854Z,10.84
2022-08-12T03:58:47.885Z,11.42
2022-08-12T03:59:52.958Z,10.91
2022-08-12T04:00:39.503Z,10.55
2022-08-12T04:01:27.334Z,10.78
2022-08-12T04:02:15.911Z,11.05
2022-08-12T04:03:02.561Z,10.47
2022-08-12T04:03:52.393Z,10.58
2022-08-12T04:04:45.132Z,10.88
2022-08-12T04:05:56.069Z,11.59
2022-08-12T04:06:45.208Z,10.99
2022-08-12T04:07:31.968Z,10.82
2022-08-12T04:08:21.264Z,10.61
2022-08-12T04:09:15.964Z,10.73
2022-08-12T04:10:05.837Z,11.63
2022-08-12T04:11:13.869Z,11.16
2022-08-12T04:12:21.479Z,10.87
2022-08-12T04:13:19.681Z,11.38
2022-08-12T04:14:07.962Z,11.30
2022-08-12T04:14:58.861Z,11.15
2022-08-12T04:15:47.322Z,11.09
2022-08-12T04:16:35.170Z,11.47
2022-08-12T04:17:23.347Z,11.62
2022-08-12T04:18:12.355Z,11.73
2022-08-12T04:18:59.463Z,11.34
2022-08-12T04:19:48.806Z,11.92
2022-08-12T04:20:36.554Z,11.43
2022-08-12T04:21:24.078Z,10.85
2022-08-12T04:22:12.585Z,11.04
2022-08-12T04:23:04.878Z,11.36
2022-08-12T04:23:54.105Z,11.78
2022-08-12T04:24:44.203Z,11.68
2022-08-12T04:25:39.620Z,11.02
2022-08-12T04:26:29.034Z,11.59
2022-08-12T04:27:15.554Z,12.01
2022-08-12T04:28:11.153Z,11.67
2022-08-12T04:29:00.126Z,11.67
2022-08-12T04:30:29.076Z,11.25
2022-08-12T04:30:56.508Z,11.22
2022-08-12T04:31:44.621Z,11.42
2022-08-12T04:32:31.878Z,11.02
2022-08-12T04:33:19.504Z,11.22
2022-08-12T04:34:07.769Z,11.68
2022-08-12T04:34:55.157Z,11.21
2022-08-12T04:35:41.727Z,11.08
2022-08-12T04:36:30.115Z,11.43
2022-08-12T04:37:16.776Z,11.97
2022-08-12T04:38:05.284Z,11.48
2022-08-12T04:38:56.477Z,11.44
2022-08-12T04:39:47.183Z,11.82
2022-08-12T04:40:36.553Z,11.49
2022-08-12T04:41:24.041Z,11.30
2022-08-12T04:42:10.701Z,11.81
2022-08-12T04:43:00.821Z,11.72
2022-08-12T04:44:00.660Z,11.42
2022-08-12T04:44:49.453Z,12.20
2022-08-12T04:45:39.079Z,11.83
2022-08-12T04:46:30.597Z,11.72
2022-08-12T04:47:22.092Z,11.68
2022-08-12T04:48:08.789Z,11.77
2022-08-12T04:48:55.806Z,11.57
2022-08-12T04:49:45.451Z,11.94
2022-08-12T04:50:36.256Z,11.76
2022-08-12T04:51:24.641Z,11.71
2022-08-12T04:52:12.661Z,12.06
2022-08-12T04:53:00.951Z,12.13
2022-08-12T04:53:49.248Z,12.22
2022-08-12T04:54:36.119Z,11.74
2022-08-12T04:55:23.950Z,11.54
2022-08-12T04:56:13.541Z,11.54
2022-08-12T04:57:04.695Z,12.33
2022-08-12T04:57:51.670Z,11.73
2022-08-12T04:58:38.863Z,11.13
2022-08-12T04:59:25.357Z,12.17
2022-08-12T05:00:14.128Z,12.21
2022-08-12T05:01:01.817Z,11.92
2022-08-12T05:01:53.599Z,11.98
2022-08-12T05:02:40.595Z,11.86
2022-08-12T05:03:27.773Z,11.09
2022-08-12T05:04:16.102Z,11.30
2022-08-12T05:05:04.657Z,11.74
2022-08-12T05:05:52.366Z,11.90
2022-08-12T05:06:39.054Z,11.79
2022-08-12T05:07:26.361Z,12.34
2022-08-12T05:08:18.055Z,12.04
2022-08-12T05:09:13.132Z,12.04
2022-08-12T05:10:02.659Z,11.52
2022-08-12T05:10:50.455Z,11.36
2022-08-12T05:11:37.694Z,12.54
2022-08-12T05:12:47.654Z,12.03
2022-08-12T05:13:40.833Z,12.02
2022-08-12T05:14:27.303Z,11.97
2022-08-12T05:15:28.002Z,12.03
2022-08-12T05:16:16.292Z,11.99
2022-08-12T05:17:12.437Z,11.48
2022-08-12T05:18:06.177Z,12.00
2022-08-12T05:19:06.454Z,11.96
2022-08-12T05:20:06.200Z,12.39
2022-08-12T05:20:54.366Z,12.19
2022-08-12T05:21:41.100Z,11.97
2022-08-12T05:22:29.065Z,11.90
2022-08-12T05:23:18.373Z,11.89
2022-08-12T05:24:06.170Z,12.50
2022-08-12T05:24:54.202Z,12.47
2022-08-12T05:25:46.574Z,12.12
2022-08-12T05:26:33.044Z,12.35
2022-08-12T05:27:19.666Z,12.40
2022-08-12T05:28:06.647Z,12.03
2022-08-12T05:28:54.106Z,11.85
2022-08-12T05:30:05.312Z,12.09
2022-08-12T05:30:48.748Z,11.96
2022-08-12T05:31:40.371Z,11.78
2022-08-12T05:32:35.226Z,11.99
2022-08-12T05:33:26.436Z,11.37
2022-08-12T05:34:15.564Z,11.85
2022-08-12T05:35:06.464Z,12.00
2022-08-12T05:35:53.566Z,11.99
2022-08-12T05:36:44.342Z,12.25
2022-08-12T05:37:30.841Z,11.94
2022-08-12T05:38:38.215Z,12.06
2022-08-12T05:39:24.793Z,12.22
2022-08-12T05:40:11.897Z,12.01
2022-08-12T05:40:59.398Z,12.11
2022-08-12T05:41:45.927Z,12.18
2022-08-12T05:42:34.656Z,12.68
2022-08-12T05:43:22.229Z,12.69
2022-08-12T05:44:13.537Z,11.72
2022-08-12T05:45:00.417Z,11.90
2022-08-12T05:45:47.433Z,12.07
2022-08-12T05:46:35.403Z,12.39
2022-08-12T05:47:21.922Z,12.89
2022-08-12T05:48:25.431Z,12.60
2022-08-12T05:49:12.222Z,13.06
2022-08-12T05:49:59.536Z,12.47
2022-08-12T05:50:46.517Z,12.36
2022-08-12T05:51:41.366Z,12.61
2022-08-12T05:52:28.809Z,12.30
2022-08-12T05:53:15.815Z,11.79
2022-08-12T05:54:02.372Z,12.55
2022-08-12T05:54:57.557Z,12.23
2022-08-12T05:55:44.502Z,12.95
2022-08-12T05:56:34.165Z,12.19
2022-08-12T05:57:20.729Z,12.47
2022-08-12T05:58:08.108Z,12.04
2022-08-12T05:58:55.882Z,12.11
2022-08-12T05:59:42.992Z,12.30
2022-08-12T06:00:32.249Z,12.12
2022-08-12T06:02:09.684Z,12.16
2022-08-12T06:02:27.019Z,12.04
2022-08-12T06:03:17.341Z,12.23
2022-08-12T06:04:06.166Z,12.66
2022-08-12T06:04:54.060Z,12.40
2022-08-12T06:05:54.023Z,13.54
2022-08-12T06:06:42.293Z,13.56
2022-08-12T06:08:00.504Z,13.15
2022-08-12T06:08:36.585Z,13.90
2022-08-12T06:09:23.166Z,13.96
2022-08-12T06:10:09.795Z,15.01
2022-08-12T06:10:57.055Z,16.62
2022-08-12T06:12:04.173Z,16.30
2022-08-12T06:12:53.596Z,14.43
2022-08-12T06:13:54.137Z,13.92
2022-08-12T06:14:41.226Z,12.88
2022-08-12T06:15:29.126Z,12.87
2022-08-12T06:16:20.245Z,12.49
2022-08-12T06:17:10.110Z,12.20
2022-08-12T06:18:11.741Z,11.83
2022-08-12T06:19:03.011Z,11.95
2022-08-12T06:20:25.671Z,11.98
2022-08-12T06:21:01.728Z,12.37
2022-08-12T06:21:49.014Z,12.54
2022-08-12T06:22:35.594Z,12.44
2022-08-12T06:23:22.135Z,12.30
2022-08-12T06:24:08.840Z,11.56
2022-08-12T06:24:55.355Z,11.91
2022-08-12T06:25:43.504Z,11.60
2022-08-12T06:26:30.054Z,12.18
2022-08-12T06:27:19.068Z,11.96
2022-08-12T06:28:17.517Z,11.83
2022-08-12T06:29:04.224Z,11.17
2022-08-12T06:30:08.414Z,12.05
2022-08-12T06:31:24.823Z,11.62
2022-08-12T06:32:06.943Z,11.49
2022-08-12T06:33:18.576Z,11.24
2022-08-12T06:35:23.358Z,10.70
2022-08-12T06:35:27.056Z,10.35
2022-08-12T06:36:21.047Z,10.29
2022-08-12T06:37:10.081Z,10.69
2022-08-12T06:37:58.313Z,10.58
2022-08-12T06:38:47.566Z,10.52
2022-08-12T06:39:34.105Z,10.62
2022-08-12T06:40:40.615Z,11.08
2022-08-12T06:42:30.693Z,11.14
2022-08-12T06:42:52.804Z,10.82
2022-08-12T06:44:05.557Z,11.04
2022-08-12T06:44:48.492Z,11.58
2022-08-12T06:45:45.326Z,10.96
2022-08-12T06:46:33.146Z,10.85
2022-08-12T06:47:21.971Z,10.95
2022-08-12T06:48:08.527Z,10.52
2022-08-12T06:48:58.711Z,10.41
2022-08-12T06:49:45.434Z,9.78
2022-08-12T06:50:34.727Z,9.98
2022-08-12T06:51:24.504Z,9.72
2022-08-12T06:52:11.111Z,9.35
2022-08-12T06:52:57.688Z,8.52
2022-08-12T06:53:44.174Z,8.86
2022-08-12T06:54:32.393Z,8.73
2022-08-12T06:55:25.277Z,9.01
2022-08-12T06:56:12.681Z,8.53
2022-08-12T06:57:57.143Z,8.49
2022-08-12T06:58:10.438Z,8.84
2022-08-12T06:58:57.900Z,8.65
2022-08-12T06:59:44.816Z,8.62
2022-08-12T07:00:34.433Z,8.11
2022-08-12T07:01:21.116Z,8.87
2022-08-12T07:02:08.577Z,8.79
2022-08-12T07:02:57.503Z,8.49
2022-08-12T07:03:44.706Z,7.99
2022-08-12T07:04:36.867Z,8.25
2022-08-12T07:05:25.005Z,7.60
2022-08-12T07:06:13.552Z,7.68
2022-08-12T07:07:00.030Z,8.06
2022-08-12T07:07:47.875Z,8.03
2022-08-12T07:08:35.300Z,8.31
2022-08-12T07:10:05.154Z,8.01
2022-08-12T07:10:33.030Z,7.05
2022-08-12T07:11:19.654Z,7.03
2022-08-12T07:12:06.233Z,7.14
2022-08-12T07:12:56.875Z,6.98
2022-08-12T07:14:10.156Z,7.36
2022-08-12T07:14:53.722Z,7.24
2022-08-12T07:15:43.837Z,7.10
2022-08-12T07:16:49.751Z,7.25
2022-08-12T07:17:37.567Z,6.89
2022-08-12T07:18:30.722Z,7.16
2022-08-12T07:19:17.541Z,7.09
2022-08-12T07:20:09.955Z,7.08
2022-08-12T07:20:58.211Z,6.37
2022-08-12T07:22:02.114Z,7.07
2022-08-12T07:22:55.406Z,8.55
2022-08-12T07:23:43.702Z,7.55
2022-08-12T07:24:30.454Z,7.07
2022-08-12T07:25:40.648Z,6.82
2022-08-12T07:26:28.459Z,6.09
2022-08-12T07:27:15.161Z,6.54
2022-08-12T07:28:15.978Z,6.22
2022-08-12T07:29:04.396Z,5.81
2022-08-12T07:30:03.764Z,6.11
2022-08-12T07:30:58.122Z,6.75
2022-08-12T07:31:44.708Z,6.44
2022-08-12T07:32:31.514Z,5.81
2022-08-12T07:33:22.558Z,5.79
2022-08-12T07:34:09.352Z,6.22
2022-08-12T07:34:56.168Z,5.87
2022-08-12T07:35:45.431Z,5.08
2022-08-12T07:36:33.981Z,5.09
2022-08-12T07:37:20.536Z,5.16
2022-08-12T07:38:29.240Z,5.18
2022-08-12T07:39:16.607Z,4.85
2022-08-12T07:40:04.314Z,5.18
2022-08-12T07:41:03.577Z,5.52
2022-08-12T07:41:52.116Z,5.19
2022-08-12T07:42:41.705Z,5.12
2022-08-12T07:43:30.010Z,4.78
2022-08-12T07:44:18.233Z,4.66
2022-08-12T07:45:07.391Z,5.06
2022-08-12T07:45:55.055Z,4.49
2022-08-12T07:46:43.763Z,4.59
2022-08-12T07:47:30.903Z,4.76
2022-08-12T07:48:17.772Z,4.99
2022-08-12T07:49:10.469Z,4.84
2022-08-12T07:50:03.191Z,4.93
2022-08-12T07:50:53.753Z,4.89
2022-08-12T07:51:42.222Z,4.80
2022-08-12T07:52:29.354Z,5.86
2022-08-12T07:53:16.735Z,6.50
2022-08-12T07:54:09.477Z,5.25
2022-08-12T07:54:55.975Z,4.87
2022-08-12T07:55:43.043Z,4.58
2022-08-12T07:56:34.795Z,4.48
2022-08-12T07:57:21.413Z,4.24
2022-08-12T07:58:08.615Z,4.05
2022-08-12T07:58:55.274Z,3.96
2022-08-12T07:59:41.829Z,4.37
2022-08-12T08:00:31.677Z,4.66
2022-08-12T08:01:21.365Z,4.36
2022-08-12T08:02:10.045Z,4.22
2022-08-12T08:02:56.730Z,4.87
2022-08-12T08:04:04.105Z,4.59
2022-08-12T08:04:56.616Z,4.31
2022-08-12T08:05:49.644Z,4.09
2022-08-12T08:06:43.703Z,4.25
2022-08-12T08:07:30.807Z,4.45
2022-08-12T08:08:23.671Z,4.43
2022-08-12T08:09:15.514Z,4.49
2022-08-12T08:10:06.771Z,4.40
2022-08-12T08:11:17.919Z,3.97
2022-08-12T08:12:23.341Z,4.17
2022-08-12T08:13:12.550Z,4.57
2022-08-12T08:14:01.463Z,4.58
2022-08-12T08:14:50.186Z,4.38
2022-08-12T08:16:48.672Z,4.19
2022-08-12T08:17:36.633Z,4.00
2022-08-12T08:18:26.707Z,4.11
2022-08-12T08:19:23.811Z,4.17
2022-08-12T08:20:12.913Z,4.15
2022-08-12T08:20:59.447Z,4.01
2022-08-12T08:21:46.420Z,4.06
2022-08-12T08:22:41.292Z,4.18
2022-08-12T08:23:56.055Z,4.35
2022-08-12T08:24:45.430Z,4.41
2022-08-12T08:25:36.457Z,4.45
2022-08-12T08:26:25.772Z,3.90
2022-08-12T08:27:12.295Z,4.13
2022-08-12T08:28:01.188Z,3.90
2022-08-12T08:28:47.863Z,3.99
2022-08-12T08:29:35.345Z,3.75
2022-08-12T08:30:22.654Z,3.75
2022-08-12T08:31:09.476Z,3.86
2022-08-12T08:32:00.109Z,3.62
2022-08-12T08:32:46.654Z,3.85
2022-08-12T08:34:09.081Z,4.17
2022-08-12T08:34:54.031Z,4.18
2022-08-12T08:35:46.709Z,3.78
2022-08-12T08:36:34.942Z,3.74
2022-08-12T08:37:24.847Z,3.61
2022-08-12T08:38:31.698Z,3.65
2022-08-12T08:39:21.613Z,3.66
2022-08-12T08:40:26.955Z,3.91
2022-08-12T08:42:17.155Z,3.73
2022-08-12T08:42:43.099Z,3.71
2022-08-12T08:43:44.200Z,3.43
2022-08-12T08:44:33.266Z,3.65
2022-08-12T08:45:21.104Z,3.56
2022-08-12T08:46:07.853Z,3.55
2022-08-12T08:46:55.626Z,3.67
2022-08-12T08:47:46.858Z,3.58
2022-08-12T08:48:34.782Z,3.55
2022-08-12T08:49:23.297Z,3.44
2022-08-12T08:50:10.529Z,3.47
2022-08-12T08:51:04.423Z,3.65
2022-08-12T08:51:51.546Z,3.60
2022-08-12T08:52:40.632Z,3.67
2022-08-12T08:53:27.404Z,3.42
2022-08-12T08:54:13.941Z,3.28
2022-08-12T08:55:00.434Z,3.06
2022-08-12T08:56:04.666Z,3.27
2022-08-12T08:56:52.285Z,3.17
2022-08-12T08:57:43.864Z,3.50
2022-08-12T08:58:30.997Z,3.43
2022-08-12T08:59:19.396Z,3.46
2022-08-12T09:00:06.848Z,3.41
2022-08-12T09:00:54.899Z,3.18
2022-08-12T09:01:44.345Z,3.30
2022-08-12T09:02:31.444Z,3.01
2022-08-12T09:05:08.017Z,3.08
2022-08-12T09:05:11.973Z,3.28
2022-08-12T09:06:02.448Z,3.51
2022-08-12T09:08:11.955Z,3.19
2022-08-12T09:09:03.262Z,3.21
2022-08-12T09:10:01.948Z,3.48
2022-08-12T09:10:50.423Z,3.40
2022-08-12T09:13:29.209Z,3.49
2022-08-12T09:14:31.124Z,3.30
2022-08-12T09:15:19.466Z,3.28
2022-08-12T09:16:07.754Z,3.59
2022-08-12T09:16:54.520Z,3.42
2022-08-12T09:17:51.423Z,3.05
2022-08-12T09:18:38.882Z,3.46
2022-08-12T09:19:28.413Z,3.25
2022-08-12T09:20:16.102Z,3.08
2022-08-12T09:21:03.796Z,3.37
2022-08-12T09:21:54.313Z,3.33
2022-08-12T09:22:48.967Z,3.45
2022-08-12T09:23:56.893Z,3.41
2022-08-12T09:24:47.546Z,3.18
2022-08-12T09:25:35.499Z,3.38
2022-08-12T09:26:28.730Z,3.23
2022-08-12T09:27:18.170Z,3.47
2022-08-12T09:28:10.628Z,3.28
2022-08-12T09:28:58.278Z,3.15
2022-08-12T09:30:12.191Z,3.40
2022-08-12T09:30:59.144Z,3.33
2022-08-12T09:32:07.163Z,3.58
2022-08-12T09:33:05.287Z,2.90
2022-08-12T09:34:26.600Z,3.33
2022-08-12T09:35:22.040Z,3.08
2022-08-12T09:36:09.037Z,3.19
2022-08-12T09:37:01.605Z,3.21
2022-08-12T09:37:58.378Z,3.19
2022-08-12T09:38:58.740Z,3.10
2022-08-12T09:40:06.015Z,3.28
2022-08-12T09:40:56.156Z,3.36
2022-08-12T09:42:35.203Z,3.23
2022-08-12T09:43:36.598Z,3.07
2022-08-12T09:45:17.992Z,3.38
2022-08-12T09:46:06.329Z,3.46
2022-08-12T09:47:10.618Z,3.42
2022-08-12T09:48:03.423Z,3.18
2022-08-12T09:48:56.277Z,3.47
2022-08-12T09:49:43.638Z,3.04
2022-08-12T09:50:31.538Z,3.20
2022-08-12T09:51:22.590Z,3.23
2022-08-12T09:52:15.460Z,3.61
2022-08-12T09:53:15.360Z,3.40
2022-08-12T09:54:05.555Z,2.97
2022-08-12T09:55:07.411Z,3.45
2022-08-12T09:56:59.520Z,3.32
2022-08-12T09:58:07.969Z,3.35
2022-08-12T09:58:59.037Z,3.55
2022-08-12T10:00:12.845Z,3.12
2022-08-12T10:00:53.076Z,3.04
2022-08-12T10:02:41.901Z,3.46
2022-08-12T10:03:05.954Z,3.15
2022-08-12T10:04:03.535Z,3.26
2022-08-12T10:04:51.978Z,3.47
2022-08-12T10:06:19.940Z,3.43
2022-08-12T10:06:54.744Z,3.54
2022-08-12T10:07:43.723Z,3.32
2022-08-12T10:08:31.398Z,3.36
2022-08-12T10:09:19.262Z,3.36
2022-08-12T10:10:22.816Z,3.40
2022-08-12T10:11:30.183Z,3.48
2022-08-12T10:13:07.258Z,3.30
2022-08-12T10:13:56.815Z,3.31
2022-08-12T10:14:49.901Z,3.59
2022-08-12T10:16:01.923Z,3.29
2022-08-12T10:16:51.434Z,3.48
2022-08-12T10:17:56.861Z,3.08
2022-08-12T10:18:59.780Z,3.40
2022-08-12T10:19:52.050Z,3.20
2022-08-12T10:20:40.589Z,3.22
2022-08-12T10:21:47.571Z,3.11
2022-08-12T10:22:45.748Z,2.93
2022-08-12T10:23:40.886Z,3.04
2022-08-12T10:24:32.570Z,2.91
2022-08-12T10:26:34.686Z,3.11
2022-08-12T10:27:05.805Z,3.28
2022-08-12T10:28:24.649Z,3.34
2022-08-12T10:30:03.332Z,2.75
2022-08-12T10:30:44.051Z,2.56
2022-08-12T10:31:47.493Z,2.95
2022-08-12T10:32:42.987Z,3.22
2022-08-12T10:33:33.392Z,3.08
2022-08-12T10:34:26.587Z,2.81
2022-08-12T10:35:15.838Z,2.82
2022-08-12T10:36:04.905Z,2.78
2022-08-12T10:37:22.944Z,2.93
2022-08-12T10:38:35.453Z,3.20
2022-08-12T10:40:03.155Z,3.01
2022-08-12T10:40:28.486Z,3.05
2022-08-12T10:41:56.770Z,3.20
2022-08-12T10:43:01.727Z,3.31
2022-08-12T10:43:55.055Z,2.97
2022-08-12T10:44:43.229Z,2.82
2022-08-12T10:45:33.507Z,2.89
2022-08-12T10:46:31.249Z,3.03
2022-08-12T10:47:25.991Z,2.97
2022-08-12T10:48:21.851Z,2.95
2022-08-12T10:50:02.857Z,3.08
2022-08-12T10:51:01.981Z,2.93
2022-08-12T10:52:03.443Z,3.32
2022-08-12T10:52:49.052Z,3.21
2022-08-12T10:53:44.949Z,3.16
2022-08-12T10:54:33.641Z,3.28
2022-08-12T10:55:22.901Z,2.99
2022-08-12T10:56:18.041Z,3.08
2022-08-12T10:57:06.428Z,3.20
2022-08-12T10:58:15.561Z,3.17
2022-08-12T10:59:00.552Z,3.33
2022-08-12T11:00:34.540Z,3.33
2022-08-12T11:01:50.466Z,3.13
2022-08-12T11:04:22.842Z,2.66
2022-08-12T11:04:23.740Z,2.93
2022-08-12T11:04:34.314Z,3.24
2022-08-12T11:07:03.390Z,3.09
2022-08-12T11:07:06.336Z,2.90
2022-08-12T11:08:39.014Z,3.28
2022-08-12T11:08:46.395Z,3.29
2022-08-12T11:09:54.392Z,3.11
2022-08-12T11:10:41.659Z,2.87
2022-08-12T11:12:35.904Z,3.19
2022-08-12T11:12:59.175Z,2.91
2022-08-12T11:13:48.972Z,3.32
2022-08-12T11:14:49.115Z,3.26
2022-08-12T11:16:19.007Z,2.74
2022-08-12T11:17:06.457Z,2.78
2022-08-12T11:17:53.744Z,3.31
2022-08-12T11:18:41.468Z,2.84
2022-08-12T11:19:30.654Z,3.16
2022-08-12T11:20:20.103Z,2.74
2022-08-12T11:21:08.713Z,3.08
2022-08-12T11:22:04.633Z,3.00
2022-08-12T11:22:58.422Z,2.95
2022-08-12T11:23:45.846Z,2.84
2022-08-12T11:24:40.540Z,3.05
2022-08-12T11:25:58.021Z,3.23
2022-08-12T11:26:49.556Z,2.82
2022-08-12T11:27:36.129Z,2.94
2022-08-12T11:28:33.805Z,3.15
2022-08-12T11:29:25.125Z,3.04
2022-08-12T11:30:30.480Z,2.58
2022-08-12T11:31:18.476Z,2.79
2022-08-12T11:32:05.552Z,2.89
2022-08-12T11:32:52.029Z,2.95
2022-08-12T11:34:05.748Z,2.79
2022-08-12T11:34:52.776Z,3.13
2022-08-12T11:35:42.884Z,2.97
2022-08-12T11:36:30.682Z,2.91
2022-08-12T11:37:25.436Z,2.70
2022-08-12T11:38:12.739Z,2.72
2022-08-12T11:39:04.341Z,2.90
2022-08-12T11:40:53.380Z,3.00
2022-08-12T11:41:40.355Z,3.20
2022-08-12T11:42:32.365Z,3.05
2022-08-12T11:43:20.435Z,2.79
2022-08-12T11:44:35.219Z,3.08
2022-08-12T11:45:16.583Z,2.77
2022-08-12T11:46:03.670Z,3.32
2022-08-12T11:46:53.315Z,2.98
2022-08-12T11:47:40.442Z,2.90
2022-08-12T11:48:27.384Z,2.84
2022-08-12T11:49:30.774Z,2.70
2022-08-12T11:50:20.402Z,2.65
2022-08-12T11:51:08.691Z,2.72
2022-08-12T11:51:57.678Z,2.92
2022-08-12T11:52:56.726Z,3.08
2022-08-12T11:53:56.948Z,2.97
2022-08-12T11:54:51.146Z,2.87
2022-08-12T11:55:46.750Z,2.58
2022-08-12T11:56:39.425Z,2.58
2022-08-12T11:58:39.396Z,2.43
2022-08-12T12:00:53.112Z,2.55
2022-08-12T12:02:02.188Z,2.31
2022-08-12T12:02:06.501Z,2.56
2022-08-12T12:02:53.186Z,2.69
2022-08-12T12:03:40.588Z,2.72
2022-08-12T12:04:32.947Z,2.81
2022-08-12T12:05:20.449Z,2.74
2022-08-12T12:06:08.687Z,2.46
2022-08-12T12:06:55.932Z,2.44
2022-08-12T12:08:40.960Z,2.89
2022-08-12T12:09:00.529Z,2.93
2022-08-12T12:09:51.779Z,2.98
2022-08-12T12:10:40.265Z,2.51
2022-08-12T12:11:27.852Z,2.61
2022-08-12T12:12:35.108Z,2.54
2022-08-12T12:13:23.260Z,2.74
2022-08-12T12:14:38.248Z,3.12
2022-08-12T12:15:40.654Z,2.43